createdAt,value
2017-11-26T00:00:15.200Z,26.17
2017-11-26T00:02:42.633Z,21.63
2017-11-26T00:05:10.083Z,19.60
2017-11-26T00:07:37.476Z,18.50
2017-11-26T00:10:04.872Z,18.67
2017-11-26T00:12:32.268Z,23.17
2017-11-26T00:14:59.667Z,15.70
2017-11-26T00:17:27.057Z,19.33
2017-11-26T00:19:54.444Z,17.27
2017-11-26T00:22:21.847Z,19.77
2017-11-26T00:24:49.332Z,19.40
2017-11-26T00:27:16.779Z,20.07
2017-11-26T00:29:44.175Z,18.87
2017-11-26T00:32:11.596Z,22.40
2017-11-26T00:34:38.997Z,17.10
2017-11-26T00:37:06.400Z,26.00
2017-11-26T00:39:33.858Z,17.17
2017-11-26T00:42:01.260Z,19.17
2017-11-26T00:44:28.644Z,25.53
2017-11-26T00:46:56.050Z,18.60
2017-11-26T00:49:23.439Z,18.50
2017-11-26T00:51:50.879Z,19.40
2017-11-26T00:54:18.300Z,20.63
2017-11-26T00:56:45.738Z,26.97
2017-11-26T00:59:13.131Z,29.00
2017-11-26T01:01:40.544Z,25.93
2017-11-26T01:04:07.939Z,22.30
2017-11-26T01:06:35.331Z,26.80
2017-11-26T01:09:02.732Z,22.20
2017-11-26T01:11:30.163Z,22.20
2017-11-26T01:13:57.559Z,16.77
2017-11-26T01:16:24.963Z,22.00
2017-11-26T01:18:52.438Z,18.83
2017-11-26T01:21:19.826Z,21.10
2017-11-26T01:23:47.233Z,24.00
2017-11-26T01:26:14.631Z,18.97
2017-11-26T01:28:42.027Z,20.40
2017-11-26T01:31:09.524Z,20.40
2017-11-26T01:33:36.916Z,21.03
2017-11-26T01:36:04.327Z,19.47
2017-11-26T01:38:31.726Z,17.10
2017-11-26T01:40:59.107Z,21.37
2017-11-26T01:43:26.504Z,18.67
2017-11-26T01:45:53.892Z,21.47
2017-11-26T01:48:21.292Z,25.70
2017-11-26T01:50:48.755Z,23.40
2017-11-26T01:53:16.154Z,28.60
2017-11-26T01:55:43.553Z,19.50
2017-11-26T01:58:10.959Z,21.20
2017-11-26T02:00:38.347Z,19.33
2017-11-26T02:03:05.743Z,19.43
2017-11-26T02:05:33.179Z,17.80
2017-11-26T02:08:00.571Z,23.57
2017-11-26T02:10:27.959Z,18.73
2017-11-26T02:12:55.374Z,23.17
2017-11-26T02:15:22.804Z,17.07
2017-11-26T02:17:50.205Z,23.63
2017-11-26T02:20:17.596Z,22.50
2017-11-26T02:22:45.080Z,19.33
2017-11-26T02:25:12.467Z,20.27
2017-11-26T02:27:40.000Z,31.10
2017-11-26T02:30:07.399Z,21.10
2017-11-26T02:32:46.591Z,20.80
2017-11-26T02:35:25.803Z,17.20
2017-11-26T02:37:53.205Z,17.37
2017-11-26T02:40:20.616Z,19.57
2017-11-26T02:42:48.083Z,20.60
2017-11-26T02:45:15.475Z,17.47
2017-11-26T02:47:42.856Z,34.90
2017-11-26T02:50:10.266Z,20.13
2017-11-26T02:52:37.648Z,22.60
2017-11-26T02:55:05.047Z,23.83
2017-11-26T02:57:32.436Z,21.07
2017-11-26T02:59:59.856Z,26.57
2017-11-26T03:02:27.318Z,21.20
2017-11-26T03:04:54.763Z,22.10
2017-11-26T03:07:22.159Z,23.20
2017-11-26T03:09:49.553Z,25.33
2017-11-26T03:12:16.999Z,24.33
2017-11-26T03:14:44.479Z,22.97
2017-11-26T03:17:11.867Z,21.30
2017-11-26T03:19:39.263Z,22.47
2017-11-26T03:22:06.656Z,24.23
2017-11-26T03:24:34.066Z,21.73
2017-11-26T03:27:01.451Z,29.40
2017-11-26T03:29:28.847Z,23.87
2017-11-26T03:31:56.248Z,20.80
2017-11-26T03:34:23.656Z,20.37
2017-11-26T03:36:51.048Z,25.20
2017-11-26T03:39:18.440Z,25.07
2017-11-26T03:41:45.863Z,24.80
2017-11-26T03:44:13.357Z,21.20
2017-11-26T03:46:40.741Z,25.67
2017-11-26T03:49:08.151Z,19.87
2017-11-26T03:51:35.614Z,23.33
2017-11-26T03:54:03.026Z,25.13
2017-11-26T03:56:30.419Z,21.27
2017-11-26T03:58:57.802Z,22.10
2017-11-26T04:01:25.212Z,19.80
2017-11-26T04:03:52.586Z,21.70
2017-11-26T04:06:19.983Z,18.70
2017-11-26T04:08:47.368Z,18.93
2017-11-26T04:11:14.851Z,21.73
2017-11-26T04:13:42.322Z,24.13
2017-11-26T04:16:09.764Z,19.97
2017-11-26T04:18:37.219Z,20.63
2017-11-26T04:21:04.687Z,18.83
2017-11-26T04:23:32.097Z,21.27
2017-11-26T04:25:59.488Z,18.20
2017-11-26T04:28:26.881Z,20.63
2017-11-26T04:30:54.299Z,21.50
2017-11-26T04:33:21.755Z,22.73
2017-11-26T04:35:49.159Z,21.70
2017-11-26T04:38:16.568Z,19.63
2017-11-26T04:40:44.020Z,23.23
2017-11-26T04:43:11.423Z,22.83
2017-11-26T04:45:38.832Z,25.70
2017-11-26T04:48:06.283Z,23.13
2017-11-26T04:50:35.883Z,24.03
2017-11-26T04:53:03.339Z,23.97
2017-11-26T04:55:30.735Z,26.20
2017-11-26T04:57:58.156Z,26.53
2017-11-26T05:00:25.551Z,27.57
2017-11-26T05:02:52.973Z,33.03
2017-11-26T05:05:20.360Z,26.67
2017-11-26T05:07:47.767Z,30.23
2017-11-26T05:10:15.167Z,32.67
2017-11-26T05:12:42.563Z,34.97
2017-11-26T05:15:10.039Z,30.60
2017-11-26T05:17:37.436Z,29.13
2017-11-26T05:20:04.819Z,28.20
2017-11-26T05:22:32.252Z,29.13
2017-11-26T05:24:59.639Z,32.13
2017-11-26T05:27:27.042Z,29.03
2017-11-26T05:29:54.519Z,28.60
2017-11-26T05:32:21.942Z,33.43
2017-11-26T05:34:49.344Z,33.93
2017-11-26T05:37:16.715Z,35.30
2017-11-26T05:39:44.141Z,32.87
2017-11-26T05:42:11.610Z,32.70
2017-11-26T05:44:38.998Z,37.30
2017-11-26T05:47:06.384Z,39.70
2017-11-26T05:49:33.864Z,32.90
2017-11-26T05:52:01.247Z,41.77
2017-11-26T05:54:28.642Z,34.13
2017-11-26T05:56:56.120Z,35.80
2017-11-26T05:59:23.523Z,43.63
2017-11-26T06:01:50.938Z,36.60
2017-11-26T06:04:18.396Z,36.20
2017-11-26T06:06:45.796Z,37.20
2017-11-26T06:09:13.303Z,30.23
2017-11-26T06:11:40.699Z,31.50
2017-11-26T06:14:08.088Z,39.47
2017-11-26T06:16:35.479Z,41.70
2017-11-26T06:19:02.876Z,30.50
2017-11-26T06:21:30.399Z,37.87
2017-11-26T06:23:57.838Z,32.60
2017-11-26T06:26:25.227Z,39.03
2017-11-26T06:28:52.636Z,34.60
2017-11-26T06:31:20.279Z,36.43
2017-11-26T06:33:47.663Z,44.07
2017-11-26T06:36:15.061Z,35.60
2017-11-26T06:38:42.557Z,41.17
2017-11-26T06:41:09.980Z,34.83
2017-11-26T06:43:37.373Z,38.10
2017-11-26T06:46:04.768Z,34.67
2017-11-26T06:48:32.244Z,39.23
2017-11-26T06:50:59.637Z,38.27
2017-11-26T06:53:27.023Z,41.17
2017-11-26T06:55:54.511Z,37.53
2017-11-26T06:58:27.661Z,33.80
2017-11-26T07:00:55.062Z,41.60
2017-11-26T07:03:22.517Z,42.47
2017-11-26T07:05:49.916Z,41.73
2017-11-26T07:08:17.299Z,32.60
2017-11-26T07:10:44.774Z,33.10
2017-11-26T07:13:12.231Z,31.20
2017-11-26T07:15:39.619Z,33.83
2017-11-26T07:18:07.009Z,32.40
2017-11-26T07:20:34.424Z,28.40
2017-11-26T07:23:01.808Z,44.00
2017-11-26T07:25:29.303Z,38.00
2017-11-26T07:27:56.704Z,31.67
2017-11-26T07:30:24.112Z,31.03
2017-11-26T07:32:51.514Z,37.57
2017-11-26T07:35:18.949Z,33.40
2017-11-26T07:37:46.342Z,40.20
2017-11-26T07:40:13.750Z,29.87
2017-11-26T07:42:41.155Z,31.47
2017-11-26T07:45:08.561Z,38.70
2017-11-26T07:47:36.008Z,24.77
2017-11-26T07:50:03.410Z,29.53
2017-11-26T07:52:30.801Z,24.67
2017-11-26T07:54:58.210Z,31.07
2017-11-26T07:57:25.608Z,31.07
2017-11-26T07:59:53.008Z,26.60
2017-11-26T08:02:20.408Z,25.13
2017-11-26T08:04:47.802Z,24.93
2017-11-26T08:07:15.215Z,25.53
2017-11-26T08:09:42.616Z,33.50
2017-11-26T08:12:10.094Z,29.00
2017-11-26T08:14:37.547Z,23.27
2017-11-26T08:17:04.944Z,24.10
2017-11-26T08:19:32.330Z,32.17
2017-11-26T08:21:59.900Z,27.10
2017-11-26T08:24:27.288Z,25.00
2017-11-26T08:26:54.684Z,20.17
2017-11-26T08:29:22.079Z,27.40
2017-11-26T08:31:49.478Z,25.53
2017-11-26T08:34:16.867Z,18.67
2017-11-26T08:36:44.266Z,26.03
2017-11-26T08:39:11.655Z,22.57
2017-11-26T08:41:39.051Z,27.30
2017-11-26T08:44:06.435Z,27.13
2017-11-26T08:46:33.840Z,21.27
2017-11-26T08:49:01.228Z,27.00
2017-11-26T08:51:28.626Z,27.23
2017-11-26T08:53:56.016Z,24.40
2017-11-26T08:56:23.408Z,20.40
2017-11-26T08:58:50.809Z,15.63
2017-11-26T09:01:18.195Z,16.33
2017-11-26T09:03:45.596Z,17.13
2017-11-26T09:06:13.444Z,18.93
2017-11-26T09:08:41.729Z,26.23
2017-11-26T09:11:09.114Z,23.47
2017-11-26T09:13:36.507Z,17.90
2017-11-26T09:16:03.895Z,19.47
2017-11-26T09:18:31.293Z,25.37
2017-11-26T09:20:58.680Z,22.13
2017-11-26T09:23:26.116Z,24.27
2017-11-26T09:25:53.503Z,18.10
2017-11-26T09:28:20.912Z,22.43
2017-11-26T09:30:48.391Z,16.37
2017-11-26T09:33:15.783Z,21.20
2017-11-26T09:35:43.322Z,15.93
2017-11-26T09:38:10.702Z,14.53
2017-11-26T09:40:38.095Z,16.03
2017-11-26T09:43:05.492Z,22.07
2017-11-26T09:45:32.916Z,12.80
2017-11-26T09:48:00.400Z,17.50
2017-11-26T09:50:27.783Z,17.37
2017-11-26T09:52:55.175Z,19.50
2017-11-26T09:55:22.572Z,14.43
2017-11-26T09:57:49.994Z,16.47
2017-11-26T10:00:17.405Z,19.23
2017-11-26T10:02:44.799Z,15.07
2017-11-26T10:05:12.258Z,23.07
2017-11-26T10:07:39.719Z,16.83
2017-11-26T10:10:07.176Z,17.97
2017-11-26T10:12:34.637Z,16.30
2017-11-26T10:15:02.090Z,22.20
2017-11-26T10:17:29.547Z,14.47
2017-11-26T10:19:56.930Z,11.43
2017-11-26T10:22:24.330Z,16.33
2017-11-26T10:24:51.725Z,15.77
2017-11-26T10:27:19.135Z,13.60
2017-11-26T10:29:46.615Z,14.97
2017-11-26T10:32:13.999Z,13.70
2017-11-26T10:34:41.439Z,13.53
2017-11-26T10:37:08.899Z,19.17
2017-11-26T10:39:36.287Z,16.17
2017-11-26T10:42:03.675Z,15.33
2017-11-26T10:44:31.069Z,13.10
2017-11-26T10:46:58.451Z,10.23
2017-11-26T10:49:25.844Z,11.83
2017-11-26T10:51:53.216Z,9.67
2017-11-26T10:54:20.611Z,13.53
2017-11-26T10:56:48.003Z,12.03
2017-11-26T10:59:15.388Z,17.67
2017-11-26T11:01:42.848Z,13.67
2017-11-26T11:04:10.299Z,12.93
2017-11-26T11:06:37.684Z,8.90
2017-11-26T11:09:05.115Z,16.30
2017-11-26T11:11:32.500Z,9.20
2017-11-26T11:13:59.882Z,7.77
2017-11-26T11:16:27.276Z,10.53
2017-11-26T11:18:54.650Z,7.30
2017-11-26T11:21:22.099Z,7.50
2017-11-26T11:23:49.467Z,7.60
2017-11-26T11:26:16.864Z,12.60
2017-11-26T11:28:44.244Z,12.77
2017-11-26T11:31:11.630Z,7.83
2017-11-26T11:33:39.081Z,8.07
2017-11-26T11:36:06.480Z,13.53
2017-11-26T11:38:33.896Z,9.30
2017-11-26T11:41:01.291Z,8.80
2017-11-26T11:43:28.707Z,8.10
2017-11-26T11:45:56.110Z,8.60
2017-11-26T11:48:23.496Z,8.30
2017-11-26T11:50:50.947Z,8.43
2017-11-26T11:53:18.427Z,8.17
2017-11-26T11:55:45.840Z,8.03
2017-11-26T11:58:13.212Z,5.80
2017-11-26T12:00:40.602Z,9.17
2017-11-26T12:03:07.987Z,10.03
2017-11-26T12:05:35.459Z,6.63
2017-11-26T12:08:02.857Z,11.67
2017-11-26T12:10:30.247Z,10.10
2017-11-26T12:12:57.628Z,7.63
2017-11-26T12:15:25.021Z,7.47
2017-11-26T12:17:52.407Z,5.30
2017-11-26T12:20:19.788Z,5.20
2017-11-26T12:22:47.243Z,6.87
2017-11-26T12:25:14.700Z,6.37
2017-11-26T12:27:42.155Z,6.57
2017-11-26T12:30:09.616Z,13.77
2017-11-26T12:32:37.004Z,7.27
2017-11-26T12:35:04.385Z,9.50
2017-11-26T12:37:31.883Z,10.23
2017-11-26T12:39:59.343Z,6.73
2017-11-26T12:42:26.719Z,8.50
2017-11-26T12:44:54.152Z,11.00
2017-11-26T12:47:21.615Z,11.03
2017-11-26T12:49:48.995Z,9.57
2017-11-26T12:52:16.384Z,8.13
2017-11-26T12:54:43.767Z,11.17
2017-11-26T12:57:11.158Z,5.07
2017-11-26T12:59:38.549Z,8.77
2017-11-26T13:02:05.932Z,16.60
2017-11-26T13:04:33.323Z,16.40
2017-11-26T13:07:00.749Z,7.10
2017-11-26T13:09:28.135Z,7.20
2017-11-26T13:11:55.537Z,5.70
2017-11-26T13:14:22.920Z,12.20
2017-11-26T13:16:50.321Z,5.07
2017-11-26T13:19:17.721Z,5.23
2017-11-26T13:21:45.175Z,11.00
2017-11-26T13:24:12.633Z,10.27
2017-11-26T13:26:40.014Z,3.23
2017-11-26T13:29:07.409Z,5.07
2017-11-26T13:31:34.904Z,5.53
2017-11-26T13:34:02.299Z,4.33
2017-11-26T13:36:29.716Z,8.27
2017-11-26T13:38:57.107Z,12.03
2017-11-26T13:41:24.520Z,6.23
2017-11-26T13:43:51.919Z,8.13
2017-11-26T13:46:19.336Z,7.53
2017-11-26T13:48:46.793Z,10.90
2017-11-26T13:51:14.246Z,10.00
2017-11-26T13:53:41.632Z,7.83
2017-11-26T13:56:09.057Z,7.20
2017-11-26T13:58:36.508Z,7.97
2017-11-26T14:01:03.972Z,6.28
2017-11-26T14:03:31.452Z,8.93
2017-11-26T14:05:58.876Z,3.50
2017-11-26T14:08:26.278Z,5.30
2017-11-26T14:10:53.696Z,4.47
2017-11-26T14:13:21.147Z,5.80
2017-11-26T14:15:48.595Z,7.13
2017-11-26T14:18:16.060Z,6.20
2017-11-26T14:20:43.506Z,5.50
2017-11-26T14:23:10.978Z,6.33
2017-11-26T14:25:38.426Z,3.07
2017-11-26T14:28:05.907Z,7.33
2017-11-26T14:30:33.293Z,3.80
2017-11-26T14:33:00.715Z,7.90
2017-11-26T14:35:28.102Z,4.20
2017-11-26T14:37:55.503Z,9.93
2017-11-26T14:40:22.891Z,3.17
2017-11-26T14:42:50.327Z,7.53
2017-11-26T14:45:17.776Z,7.10
2017-11-26T14:47:45.228Z,6.73
2017-11-26T14:50:12.615Z,11.43
2017-11-26T14:52:40.012Z,7.43
2017-11-26T14:55:07.495Z,7.30
2017-11-26T14:57:34.959Z,5.30
2017-11-26T15:00:02.419Z,11.63
2017-11-26T15:02:29.796Z,5.40
2017-11-26T15:04:57.990Z,4.60
2017-11-26T15:07:25.392Z,5.97
2017-11-26T15:09:52.784Z,3.70
2017-11-26T15:12:20.207Z,5.47
2017-11-26T15:14:47.603Z,5.13
2017-11-26T15:17:14.984Z,15.90
2017-11-26T15:19:42.386Z,6.77
2017-11-26T15:22:09.771Z,6.77
2017-11-26T15:24:37.176Z,5.37
2017-11-26T15:27:04.637Z,10.23
2017-11-26T15:29:32.087Z,7.17
2017-11-26T15:31:59.543Z,7.23
2017-11-26T15:34:27.017Z,5.30
2017-11-26T15:36:54.402Z,11.47
2017-11-26T15:39:21.784Z,10.50
2017-11-26T15:41:49.176Z,11.20
2017-11-26T15:44:16.649Z,9.20
2017-11-26T15:46:44.040Z,6.10
2017-11-26T15:49:11.432Z,6.53
2017-11-26T15:51:38.891Z,5.33
2017-11-26T15:54:06.272Z,5.30
2017-11-26T15:56:33.711Z,8.23
2017-11-26T15:59:01.155Z,8.97
2017-11-26T16:01:28.553Z,5.07
2017-11-26T16:03:55.936Z,6.77
2017-11-26T16:06:23.324Z,3.33
2017-11-26T16:08:50.729Z,8.40
2017-11-26T16:11:18.132Z,5.30
2017-11-26T16:13:45.603Z,4.80
2017-11-26T16:16:13.152Z,10.07
2017-11-26T16:18:40.624Z,6.60
2017-11-26T16:21:08.033Z,8.23
2017-11-26T16:23:35.418Z,4.50
2017-11-26T16:26:02.805Z,3.07
2017-11-26T16:28:30.231Z,7.20
2017-11-26T16:30:57.651Z,9.13
2017-11-26T16:33:25.135Z,10.17
2017-11-26T16:35:52.516Z,4.13
2017-11-26T16:38:19.929Z,3.37
2017-11-26T16:40:47.310Z,2.97
2017-11-26T16:43:14.704Z,4.47
2017-11-26T16:45:42.085Z,5.90
2017-11-26T16:48:09.480Z,4.10
2017-11-26T16:50:36.865Z,2.83
2017-11-26T16:53:04.387Z,5.83
2017-11-26T16:55:31.825Z,4.10
2017-11-26T16:57:59.276Z,5.73
2017-11-26T17:00:27.563Z,5.23
2017-11-26T17:02:54.952Z,5.00
2017-11-26T17:05:22.338Z,6.10
2017-11-26T17:07:49.780Z,2.80
2017-11-26T17:10:17.170Z,2.93
2017-11-26T17:12:44.625Z,12.00
2017-11-26T17:15:12.080Z,10.40
2017-11-26T17:17:39.535Z,7.03
2017-11-26T17:20:06.994Z,4.87
2017-11-26T17:22:34.382Z,4.43
2017-11-26T17:25:01.852Z,7.77
2017-11-26T17:27:29.245Z,6.47
2017-11-26T17:29:56.615Z,4.50
2017-11-26T17:32:24.028Z,4.37
2017-11-26T17:34:51.411Z,4.30
2017-11-26T17:37:18.796Z,7.80
2017-11-26T17:39:46.389Z,37.13
2017-11-26T17:42:13.773Z,8.07
2017-11-26T17:44:41.195Z,4.87
2017-11-26T17:47:08.583Z,9.00
2017-11-26T17:49:35.973Z,4.07
2017-11-26T17:52:03.479Z,16.10
2017-11-26T17:54:30.870Z,3.13
2017-11-26T17:56:58.251Z,6.10
2017-11-26T17:59:25.657Z,3.83
2017-11-26T18:01:53.119Z,4.50
2017-11-26T18:04:20.595Z,4.00
2017-11-26T18:06:48.046Z,6.63
2017-11-26T18:09:15.484Z,5.50
2017-11-26T18:11:42.872Z,7.60
2017-11-26T18:14:10.273Z,4.30
2017-11-26T18:16:37.678Z,6.03
2017-11-26T18:19:05.079Z,5.10
2017-11-26T18:21:32.467Z,3.57
2017-11-26T18:23:59.853Z,3.10
2017-11-26T18:26:27.296Z,3.67
2017-11-26T18:28:54.686Z,8.40
2017-11-26T18:31:22.071Z,4.33
2017-11-26T18:33:49.447Z,3.30
2017-11-26T18:36:16.850Z,13.67
2017-11-26T18:38:44.235Z,16.57
2017-11-26T18:41:11.629Z,5.13
2017-11-26T18:43:39.010Z,7.80
2017-11-26T18:46:06.396Z,5.90
2017-11-26T18:48:33.783Z,4.30
2017-11-26T18:51:01.190Z,3.13
2017-11-26T18:53:28.566Z,10.90
2017-11-26T18:55:55.960Z,5.03
2017-11-26T18:58:23.354Z,5.77
2017-11-26T19:00:51.027Z,6.67
2017-11-26T19:03:18.516Z,4.40
2017-11-26T19:05:45.911Z,4.43
2017-11-26T19:08:13.285Z,6.73
2017-11-26T19:10:40.687Z,3.90
2017-11-26T19:13:08.093Z,7.60
2017-11-26T19:15:35.497Z,6.60
2017-11-26T19:18:02.981Z,3.50
2017-11-26T19:20:30.443Z,4.63
2017-11-26T19:22:57.911Z,5.10
2017-11-26T19:25:25.311Z,3.03
2017-11-26T19:27:52.708Z,2.63
2017-11-26T19:30:20.103Z,5.00
2017-11-26T19:32:47.623Z,5.60
2017-11-26T19:35:15.020Z,3.47
2017-11-26T19:37:42.416Z,9.80
2017-11-26T19:40:09.805Z,3.90
2017-11-26T19:42:37.190Z,7.80
2017-11-26T19:45:04.683Z,12.53
2017-11-26T19:47:32.083Z,6.00
2017-11-26T19:49:59.467Z,2.80
2017-11-26T19:52:26.859Z,7.60
2017-11-26T19:54:54.265Z,3.97
2017-11-26T19:57:21.653Z,8.03
2017-11-26T19:59:49.053Z,5.53
2017-11-26T20:02:16.452Z,6.87
2017-11-26T20:04:43.835Z,6.43
2017-11-26T20:07:11.219Z,3.03
2017-11-26T20:09:38.609Z,5.53
2017-11-26T20:12:05.999Z,7.17
2017-11-26T20:14:33.463Z,6.50
2017-11-26T20:17:00.847Z,6.43
2017-11-26T20:19:28.259Z,15.43
2017-11-26T20:21:55.648Z,8.87
2017-11-26T20:24:23.059Z,11.80
2017-11-26T20:26:50.508Z,7.60
2017-11-26T20:29:17.898Z,9.97
2017-11-26T20:31:45.289Z,5.50
2017-11-26T20:34:12.672Z,11.23
2017-11-26T20:36:40.060Z,8.37
2017-11-26T20:39:07.448Z,14.63
2017-11-26T20:41:34.831Z,7.63
2017-11-26T20:44:02.225Z,10.03
2017-11-26T20:46:29.633Z,8.60
2017-11-26T20:48:57.020Z,8.77
2017-11-26T20:51:24.472Z,8.13
2017-11-26T20:53:51.866Z,9.10
2017-11-26T20:56:19.248Z,11.37
2017-11-26T20:58:46.655Z,13.90
2017-11-26T21:01:14.030Z,12.23
2017-11-26T21:03:41.487Z,7.03
2017-11-26T21:09:04.651Z,9.97
2017-11-26T21:11:32.037Z,9.93
2017-11-26T21:13:59.437Z,6.23
2017-11-26T21:16:26.810Z,21.17
2017-11-26T21:18:54.205Z,8.00
2017-11-26T21:21:21.581Z,9.00
2017-11-26T21:23:48.968Z,15.80
2017-11-26T21:26:16.348Z,7.40
2017-11-26T21:28:43.731Z,8.80
2017-11-26T21:31:11.124Z,12.73
2017-11-26T21:33:38.512Z,8.43
2017-11-26T21:36:05.910Z,11.60
2017-11-26T21:38:33.483Z,6.60
2017-11-26T21:41:01.019Z,7.17
2017-11-26T21:43:28.632Z,10.00
2017-11-26T21:45:56.098Z,6.33
2017-11-26T21:48:23.713Z,12.63
2017-11-26T21:50:51.139Z,6.03
2017-11-26T21:53:18.701Z,7.27
2017-11-26T21:55:46.236Z,14.87
2017-11-26T21:58:13.635Z,12.20
2017-11-26T22:00:41.092Z,17.67
2017-11-26T22:03:08.606Z,9.80
2017-11-26T22:05:36.197Z,9.80
2017-11-26T22:08:03.704Z,11.07
2017-11-26T22:10:31.276Z,13.67
2017-11-26T22:12:58.766Z,10.93
2017-11-26T22:15:26.294Z,18.43
2017-11-26T22:17:53.810Z,11.23
2017-11-26T22:20:21.335Z,15.80
2017-11-26T22:22:48.873Z,14.20
2017-11-26T22:25:16.497Z,17.33
2017-11-26T22:27:44.093Z,19.47
2017-11-26T22:30:11.696Z,17.23
2017-11-26T22:32:39.213Z,22.47
2017-11-26T22:35:07.419Z,14.23
2017-11-26T22:37:34.953Z,10.27
2017-11-26T22:40:02.439Z,19.63
2017-11-26T22:42:29.962Z,12.10
2017-11-26T22:44:57.547Z,15.63
2017-11-26T22:47:25.117Z,17.37
2017-11-26T22:49:52.570Z,15.60
2017-11-26T22:52:20.091Z,16.53
2017-11-26T22:54:47.539Z,14.37
2017-11-26T22:57:15.092Z,22.90
2017-11-26T22:59:42.483Z,19.30
2017-11-26T23:02:09.872Z,20.33
2017-11-26T23:04:46.915Z,12.10
2017-11-26T23:07:14.302Z,16.00
2017-11-26T23:09:41.711Z,16.90
2017-11-26T23:12:09.079Z,16.63
2017-11-26T23:14:36.478Z,17.37
2017-11-26T23:17:03.878Z,18.80
2017-11-26T23:19:31.307Z,17.73
2017-11-26T23:21:58.706Z,15.60
2017-11-26T23:24:26.092Z,14.50
2017-11-26T23:26:53.484Z,16.10
2017-11-26T23:29:20.875Z,12.80
2017-11-26T23:31:48.266Z,14.63
2017-11-26T23:34:15.648Z,14.07
2017-11-26T23:36:43.038Z,13.60
2017-11-26T23:39:10.415Z,18.07
2017-11-26T23:41:37.811Z,11.73
2017-11-26T23:44:05.195Z,14.63
2017-11-26T23:46:32.596Z,16.70
2017-11-26T23:48:59.971Z,10.47
2017-11-26T23:51:27.365Z,16.20
2017-11-26T23:53:54.744Z,16.00
2017-11-26T23:56:22.144Z,25.40
2017-11-26T23:58:49.541Z,15.97
